Time;durP1;ratioP1;P1;durP2;ratioP2;P2;SDS_P1;SDS_P2;PMS_P1;PMS_P2;Temp;Humidity;BMP_temperature;BMP_pressure;BME280_temperature;BME280_humidity;BME280_pressure;Samples;Min_cycle;Max_cycle;Signal;HPM_P1;HPM_P2
2021/01/15 00:02:03;;;;;;;6.82;3.88;;;;;6.10;102172.00;;;;5008314;28;20212;-75
2021/01/15 00:04:30;;;;;;;4.35;3.15;;;;;6.10;102177.00;;;;5010418;28;20239;-75
2021/01/15 00:07:03;;;;;;;5.18;3.58;;;;;6.10;102176.00;;;;5013674;28;20714;-76
2021/01/15 00:09:30;;;;;;;6.22;4.18;;;;;6.10;102173.00;;;;5010782;28;20456;-75
2021/01/15 00:11:57;;;;;;;6.78;3.58;;;;;6.10;102177.00;;;;5009199;28;20205;-75
2021/01/15 00:14:25;;;;;;;7.25;4.13;;;;;6.10;102174.00;;;;5009229;28;20584;-75
2021/01/15 00:16:53;;;;;;;5.78;3.50;;;;;6.00;102178.00;;;;5008276;28;20606;-75
2021/01/15 00:19:20;;;;;;;5.90;3.83;;;;;6.00;102174.00;;;;5007744;28;20249;-75
2021/01/15 00:21:50;;;;;;;6.30;3.92;;;;;6.00;102178.00;;;;5006284;28;20201;-75
2021/01/15 00:24:18;;;;;;;6.32;3.75;;;;;6.00;102178.00;;;;5008545;28;20437;-75
2021/01/15 00:26:46;;;;;;;5.10;3.40;;;;;6.00;102186.00;;;;5008597;28;20216;-75
2021/01/15 00:29:13;;;;;;;5.85;3.65;;;;;6.00;102187.00;;;;5007442;28;20201;-75
2021/01/15 00:31:43;;;;;;;4.97;2.88;;;;;6.00;102191.00;;;;5007020;28;20205;-75
2021/01/15 00:34:11;;;;;;;6.35;4.22;;;;;6.00;102191.00;;;;5008370;28;20204;-75
2021/01/15 00:36:39;;;;;;;5.32;3.80;;;;;6.00;102190.00;;;;5024083;28;20197;-75
2021/01/15 00:39:08;;;;;;;5.18;3.22;;;;;6.00;102183.00;;;;5012529;28;20220;-75
2021/01/15 00:41:35;;;;;;;6.05;3.75;;;;;6.00;102192.00;;;;5007322;28;20251;-75
2021/01/15 00:44:03;;;;;;;6.13;3.42;;;;;6.00;102201.00;;;;5007498;28;20224;-75
2021/01/15 00:46:31;;;;;;;8.48;3.65;;;;;6.10;102198.00;;;;5013165;28;20199;-75
2021/01/15 00:49:00;;;;;;;5.43;3.30;;;;;6.10;102201.00;;;;5003345;28;20205;-75
2021/01/15 00:51:27;;;;;;;5.40;3.83;;;;;6.10;102199.00;;;;5009580;28;20205;-75
2021/01/15 00:53:54;;;;;;;3.97;3.10;;;;;6.10;102208.00;;;;5010648;28;20205;-75
2021/01/15 00:56:21;;;;;;;5.30;3.42;;;;;6.10;102208.00;;;;5011174;28;20725;-76
2021/01/15 00:58:48;;;;;;;5.82;3.55;;;;;6.20;102212.00;;;;5017331;28;20224;-75
2021/01/15 01:01:15;;;;;;;5.75;3.30;;;;;6.20;102211.00;;;;5020125;28;20205;-75
2021/01/15 01:03:42;;;;;;;6.07;3.65;;;;;6.20;102214.00;;;;5015289;28;20220;-75
2021/01/15 01:06:14;;;;;;;6.28;3.47;;;;;6.20;102217.00;;;;5023104;28;20201;-75
2021/01/15 01:08:42;;;;;;;5.53;3.40;;;;;6.20;102215.00;;;;5011119;28;20203;-76
2021/01/15 01:11:12;;;;;;;4.55;3.03;;;;;6.20;102219.00;;;;5011273;28;20204;-76
2021/01/15 01:13:40;;;;;;;5.20;3.17;;;;;6.20;102215.00;;;;5011596;28;20204;-76
2021/01/15 01:16:08;;;;;;;5.05;3.33;;;;;6.20;102219.00;;;;5011043;28;20208;-75
2021/01/15 01:18:35;;;;;;;4.85;3.58;;;;;6.30;102227.00;;;;5000240;28;20646;-75
2021/01/15 01:21:02;;;;;;;7.40;3.58;;;;;6.30;102227.00;;;;4993683;28;20301;-76
2021/01/15 01:23:30;;;;;;;4.13;2.78;;;;;6.30;102240.00;;;;5011772;28;20283;-75
2021/01/15 01:25:57;;;;;;;5.95;3.92;;;;;6.30;102238.00;;;;5022411;28;20209;-75
2021/01/15 01:28:23;;;;;;;4.70;2.85;;;;;6.40;102244.00;;;;5011167;28;20201;-75
2021/01/15 01:30:51;;;;;;;4.10;2.97;;;;;6.40;102256.00;;;;5022199;28;20203;-75
2021/01/15 01:33:17;;;;;;;4.60;2.97;;;;;6.40;102254.00;;;;5016006;28;20193;-75
2021/01/15 01:35:44;;;;;;;4.68;3.08;;;;;6.50;102249.00;;;;5024487;28;20196;-76
2021/01/15 01:38:11;;;;;;;5.25;3.25;;;;;6.50;102258.00;;;;5025134;28;20208;-75
2021/01/15 01:40:40;;;;;;;5.13;3.22;;;;;6.50;102263.00;;;;5012229;28;20213;-75
2021/01/15 01:43:07;;;;;;;4.78;3.20;;;;;6.60;102267.00;;;;5010380;28;20217;-75
2021/01/15 01:45:34;;;;;;;5.35;3.03;;;;;6.60;102268.00;;;;5011883;28;20201;-75
2021/01/15 01:48:01;;;;;;;5.32;3.50;;;;;6.70;102275.00;;;;5007620;28;20200;-76
2021/01/15 01:50:30;;;;;;;4.63;2.90;;;;;6.70;102276.00;;;;5002757;28;20202;-75
2021/01/15 01:52:58;;;;;;;4.68;3.15;;;;;6.70;102276.00;;;;5008975;28;20212;-76
2021/01/15 01:55:25;;;;;;;5.72;3.42;;;;;6.80;102274.00;;;;5011325;28;20193;-75
2021/01/15 01:57:53;;;;;;;3.90;2.95;;;;;6.80;102279.00;;;;5011368;28;20678;-75
2021/01/15 02:00:20;;;;;;;4.82;2.97;;;;;6.80;102283.00;;;;5010548;28;20205;-76
2021/01/15 02:02:47;;;;;;;4.65;2.85;;;;;6.90;102280.00;;;;5010385;28;20221;-76
2021/01/15 02:05:14;;;;;;;4.28;3.03;;;;;6.90;102285.00;;;;5013330;28;20231;-76
2021/01/15 02:07:41;;;;;;;7.30;3.15;;;;;6.90;102294.00;;;;5015995;28;20227;-75
2021/01/15 02:10:13;;;;;;;5.80;3.70;;;;;6.90;102295.00;;;;5006978;28;20216;-75
2021/01/15 02:12:47;;;;;;;4.63;3.22;;;;;7.00;102289.00;;;;5010305;28;20209;-75
2021/01/15 02:15:20;;;;;;;5.18;3.28;;;;;7.00;102289.00;;;;5023407;28;20192;-75
2021/01/15 02:17:55;;;;;;;5.40;3.33;;;;;7.00;102293.00;;;;5016119;28;20225;-76
2021/01/15 02:20:43;;;;;;;4.40;3.63;;;;;7.10;102299.00;;;;5009677;28;20205;-76
2021/01/15 02:23:15;;;;;;;5.47;3.28;;;;;7.10;102304.00;;;;5010980;28;20224;-76
2021/01/15 02:26:14;;;;;;;4.70;3.35;;;;;7.10;102302.00;;;;4999605;28;20211;-75
2021/01/15 02:29:15;;;;;;;4.07;3.22;;;;;7.10;102306.00;;;;5011268;28;20566;-75
2021/01/15 02:32:18;;;;;;;5.75;3.58;;;;;7.10;102307.00;;;;5011446;28;20205;-75
2021/01/15 02:35:06;;;;;;;4.93;2.80;;;;;7.10;102314.00;;;;5009418;28;20207;-75
2021/01/15 02:37:41;;;;;;;4.07;2.90;;;;;7.20;102316.00;;;;5001771;28;20708;-75
2021/01/15 02:40:16;;;;;;;3.60;2.92;;;;;7.30;102326.00;;;;5002090;28;20204;-75
2021/01/15 02:42:45;;;;;;;4.57;2.90;;;;;7.30;102318.00;;;;5019722;28;20232;-76
2021/01/15 02:45:13;;;;;;;5.70;3.72;;;;;7.30;102323.00;;;;5011681;28;20197;-75
2021/01/15 02:47:51;;;;;;;8.45;3.63;;;;;7.30;102320.00;;;;5009844;28;20263;-76
2021/01/15 02:50:22;;;;;;;5.72;3.67;;;;;7.30;102326.00;;;;5010420;28;20193;-75
2021/01/15 02:52:49;;;;;;;6.15;3.67;;;;;7.30;102318.00;;;;5015152;28;20215;-76
2021/01/15 02:55:17;;;;;;;5.38;3.13;;;;;7.40;102325.00;;;;5008954;28;20729;-76
2021/01/15 02:57:44;;;;;;;5.55;3.55;;;;;7.40;102329.00;;;;5010214;28;20197;-75
2021/01/15 03:00:14;;;;;;;6.00;3.60;;;;;7.40;102329.00;;;;5012826;28;20236;-75
2021/01/15 03:02:50;;;;;;;5.57;3.53;;;;;7.40;102331.00;;;;5009691;28;20213;-76
2021/01/15 03:05:21;;;;;;;5.00;3.47;;;;;7.40;102339.00;;;;4989582;28;20197;-75
2021/01/15 03:07:49;;;;;;;6.68;3.63;;;;;7.40;102338.00;;;;5002579;28;20308;-76
2021/01/15 03:10:20;;;;;;;5.45;3.47;;;;;7.50;102332.00;;;;5009076;28;20570;-75
2021/01/15 03:12:49;;;;;;;5.57;3.38;;;;;7.50;102334.00;;;;5002954;28;20235;-76
2021/01/15 03:15:18;;;;;;;6.50;4.03;;;;;7.50;102344.00;;;;5007423;28;20197;-76
2021/01/15 03:17:47;;;;;;;5.22;4.00;;;;;7.50;102337.00;;;;5008293;28;20217;-75
2021/01/15 03:20:15;;;;;;;5.07;3.25;;;;;7.50;102343.00;;;;5008822;28;20197;-76
2021/01/15 03:22:45;;;;;;;5.32;3.60;;;;;7.50;102350.00;;;;5016134;28;20239;-76
2021/01/15 03:25:13;;;;;;;6.15;3.67;;;;;7.50;102345.00;;;;5015679;28;20211;-76
2021/01/15 03:27:46;;;;;;;5.13;3.30;;;;;7.50;102352.00;;;;5008732;28;20201;-76
2021/01/15 03:30:15;;;;;;;4.60;3.00;;;;;7.60;102355.00;;;;4988714;28;20198;-75
2021/01/15 03:32:43;;;;;;;5.07;3.33;;;;;7.60;102355.00;;;;4999754;28;20200;-76
2021/01/15 03:35:22;;;;;;;5.95;3.20;;;;;7.60;102364.00;;;;5005258;28;20750;-76
2021/01/15 03:38:02;;;;;;;6.28;3.10;;;;;7.60;102363.00;;;;5016632;28;20200;-75
2021/01/15 03:40:30;;;;;;;5.28;3.42;;;;;7.60;102366.00;;;;5009547;28;20251;-75
2021/01/15 03:42:57;;;;;;;5.93;3.65;;;;;7.60;102365.00;;;;5007980;28;20224;-76
2021/01/15 03:45:25;;;;;;;3.58;3.00;;;;;7.60;102366.00;;;;5004701;28;20293;-76
2021/01/15 03:47:52;;;;;;;4.18;3.10;;;;;7.60;102364.00;;;;5007525;28;20197;-75
2021/01/15 03:50:19;;;;;;;9.60;3.78;;;;;7.60;102364.00;;;;5008760;28;20213;-76
2021/01/15 03:52:47;;;;;;;7.50;3.17;;;;;7.70;102365.00;;;;5009226;28;20636;-76
2021/01/15 03:55:15;;;;;;;6.10;3.20;;;;;7.70;102368.00;;;;5008159;28;20575;-76
2021/01/15 03:57:42;;;;;;;3.65;2.47;;;;;7.70;102377.00;;;;5009477;28;20213;-76
2021/01/15 04:00:10;;;;;;;6.20;3.35;;;;;7.70;102377.00;;;;5027407;28;20617;-76
2021/01/15 04:02:37;;;;;;;5.05;2.97;;;;;7.80;102377.00;;;;5017936;28;20232;-76
2021/01/15 04:05:04;;;;;;;5.53;3.30;;;;;7.80;102372.00;;;;5007988;28;20593;-75
2021/01/15 04:07:31;;;;;;;5.68;3.70;;;;;7.80;102375.00;;;;5009379;28;20725;-76
2021/01/15 04:09:58;;;;;;;5.68;3.35;;;;;7.80;102369.00;;;;5008102;28;20320;-76
2021/01/15 04:12:25;;;;;;;4.55;3.30;;;;;7.80;102382.00;;;;5008980;28;20200;-76
2021/01/15 04:14:52;;;;;;;5.20;3.25;;;;;7.80;102375.00;;;;5008121;28;20209;-75
2021/01/15 04:17:19;;;;;;;5.47;3.33;;;;;7.80;102383.00;;;;5012193;28;20239;-76
2021/01/15 04:19:46;;;;;;;5.43;3.17;;;;;7.80;102388.00;;;;4998164;28;20201;-75
2021/01/15 04:22:12;;;;;;;6.75;3.70;;;;;7.80;102387.00;;;;5010996;28;20193;-76
2021/01/15 04:24:39;;;;;;;4.30;3.15;;;;;7.80;102394.00;;;;5008286;28;20212;-76
2021/01/15 04:27:06;;;;;;;4.95;3.03;;;;;7.80;102392.00;;;;5014126;28;20201;-75
2021/01/15 04:29:35;;;;;;;5.93;3.08;;;;;7.70;102391.00;;;;5012526;28;20193;-76
2021/01/15 04:32:02;;;;;;;3.70;2.67;;;;;7.80;102396.00;;;;5025299;28;20188;-76
2021/01/15 04:34:30;;;;;;;5.63;2.92;;;;;7.80;102406.00;;;;5016885;28;20255;-76
2021/01/15 04:36:57;;;;;;;5.20;3.05;;;;;7.80;102406.00;;;;5011427;28;20293;-76
2021/01/15 04:39:24;;;;;;;5.57;3.03;;;;;7.80;102402.00;;;;5011650;28;20212;-76
2021/01/15 04:41:52;;;;;;;5.88;3.25;;;;;7.80;102401.00;;;;5012148;28;20209;-75
2021/01/15 04:44:19;;;;;;;3.97;2.78;;;;;7.80;102399.00;;;;5012071;28;20223;-76
2021/01/15 04:46:49;;;;;;;4.45;2.47;;;;;7.80;102406.00;;;;5012662;28;20201;-76
2021/01/15 04:49:22;;;;;;;4.90;3.00;;;;;7.80;102407.00;;;;5012884;28;20193;-76
2021/01/15 04:51:57;;;;;;;4.00;3.13;;;;;7.80;102421.00;;;;5013169;28;20706;-76
2021/01/15 04:54:35;;;;;;;4.95;3.28;;;;;7.80;102408.00;;;;5010663;28;20235;-76
2021/01/15 04:57:06;;;;;;;5.95;3.38;;;;;7.80;102404.00;;;;5012030;28;20296;-76
2021/01/15 04:59:39;;;;;;;7.28;3.50;;;;;7.80;102408.00;;;;5022270;28;20242;-76
2021/01/15 05:02:09;;;;;;;4.15;2.72;;;;;7.80;102406.00;;;;5014846;28;20293;-76
2021/01/15 05:04:36;;;;;;;4.53;3.38;;;;;7.90;102413.00;;;;5012162;28;20931;-76
2021/01/15 05:07:04;;;;;;;4.72;2.92;;;;;7.90;102414.00;;;;5012575;28;20308;-75
2021/01/15 05:09:39;;;;;;;5.20;3.70;;;;;7.90;102418.00;;;;5031728;28;20200;-76
2021/01/15 05:12:11;;;;;;;6.78;3.53;;;;;7.90;102416.00;;;;5010244;28;20556;-76
2021/01/15 05:14:38;;;;;;;5.32;3.50;;;;;7.90;102421.00;;;;5012062;28;20200;-76
2021/01/15 05:17:07;;;;;;;5.63;3.38;;;;;7.90;102427.00;;;;5013128;28;20193;-76
2021/01/15 05:19:37;;;;;;;4.90;2.95;;;;;7.90;102426.00;;;;5030726;28;20196;-76
2021/01/15 05:22:04;;;;;;;5.70;3.47;;;;;8.00;102425.00;;;;5026140;28;20208;-76
2021/01/15 05:24:31;;;;;;;5.28;3.17;;;;;8.00;102435.00;;;;5010817;28;20225;-76
2021/01/15 05:27:00;;;;;;;5.78;3.15;;;;;8.00;102437.00;;;;5010792;28;20583;-75
2021/01/15 05:29:27;;;;;;;5.50;3.53;;;;;8.00;102447.00;;;;5007879;28;20908;-76
2021/01/15 05:31:56;;;;;;;4.25;2.70;;;;;8.00;102447.00;;;;5011184;28;20232;-76
2021/01/15 05:34:24;;;;;;;5.93;3.50;;;;;8.00;102444.00;;;;5006155;28;20256;-76
2021/01/15 05:36:51;;;;;;;6.70;4.03;;;;;8.00;102442.00;;;;5028876;28;20550;-76
2021/01/15 05:39:20;;;;;;;5.93;3.78;;;;;8.00;102448.00;;;;5010871;28;20204;-75
2021/01/15 05:41:48;;;;;;;5.38;3.50;;;;;8.00;102446.00;;;;5010318;28;20206;-76
2021/01/15 05:44:29;;;;;;;5.35;3.33;;;;;7.90;102456.00;;;;5011261;28;20279;-76
2021/01/15 05:46:58;;;;;;;4.93;3.50;;;;;8.00;102454.00;;;;5025269;28;20213;-76
2021/01/15 05:49:26;;;;;;;6.60;3.88;;;;;8.00;102465.00;;;;5007969;28;20207;-76
2021/01/15 05:51:52;;;;;;;6.13;3.47;;;;;8.00;102462.00;;;;5006251;28;20205;-76
2021/01/15 05:54:30;;;;;;;5.18;3.42;;;;;7.90;102469.00;;;;5018054;28;20201;-76
2021/01/15 05:56:58;;;;;;;6.65;3.78;;;;;8.00;102472.00;;;;5021934;28;20292;-76
2021/01/15 05:59:25;;;;;;;5.63;3.05;;;;;8.00;102474.00;;;;5011298;28;20221;-75
2021/01/15 06:01:54;;;;;;;4.82;3.08;;;;;8.00;102476.00;;;;5012600;28;20725;-76
2021/01/15 06:04:35;;;;;;;4.68;3.30;;;;;8.00;102480.00;;;;5008240;28;20315;-76
2021/01/15 06:07:16;;;;;;;4.63;3.40;;;;;8.00;102479.00;;;;5012811;28;20221;-75
2021/01/15 06:09:45;;;;;;;7.80;3.50;;;;;8.00;102488.00;;;;5011066;28;20217;-76
2021/01/15 06:12:13;;;;;;;4.95;3.00;;;;;8.10;102486.00;;;;5008768;28;20589;-76
2021/01/15 06:14:49;;;;;;;6.63;3.35;;;;;8.10;102490.00;;;;5012395;28;20201;-76
2021/01/15 06:17:18;;;;;;;5.18;3.38;;;;;8.10;102500.00;;;;5013576;28;20197;-76
2021/01/15 06:19:47;;;;;;;4.88;3.35;;;;;8.10;102500.00;;;;5006452;28;20201;-76
2021/01/15 06:22:28;;;;;;;8.48;4.03;;;;;8.00;102509.00;;;;5008677;28;20197;-76
2021/01/15 06:25:11;;;;;;;5.25;3.28;;;;;8.00;102508.00;;;;5010482;28;20221;-77
2021/01/15 06:27:40;;;;;;;4.95;3.38;;;;;8.10;102510.00;;;;5013224;28;20898;-77
2021/01/15 06:30:08;;;;;;;4.38;3.03;;;;;8.10;102509.00;;;;5009820;28;20558;-76
2021/01/15 06:32:35;;;;;;;5.90;3.15;;;;;8.10;102515.00;;;;5020096;28;20196;-76
2021/01/15 06:35:03;;;;;;;5.10;3.13;;;;;8.10;102520.00;;;;5023942;28;20217;-76
2021/01/15 06:37:30;;;;;;;5.82;3.42;;;;;8.10;102518.00;;;;5000710;28;20205;-76
2021/01/15 06:40:06;;;;;;;5.32;3.25;;;;;8.10;102513.00;;;;5009850;28;20490;-76
2021/01/15 06:42:45;;;;;;;6.22;3.70;;;;;8.10;102525.00;;;;5008895;28;20204;-76
2021/01/15 06:45:13;;;;;;;5.05;3.45;;;;;8.20;102520.00;;;;5008786;28;20227;-77
2021/01/15 06:47:42;;;;;;;6.13;3.35;;;;;8.20;102523.00;;;;5011928;28;20262;-77
2021/01/15 06:50:15;;;;;;;5.13;3.45;;;;;8.20;102531.00;;;;5025691;28;20203;-76
2021/01/15 06:52:47;;;;;;;5.80;3.80;;;;;8.20;102536.00;;;;5009335;28;20208;-77
2021/01/15 06:55:17;;;;;;;4.82;3.25;;;;;8.20;102537.00;;;;5009983;28;20535;-76
2021/01/15 06:57:48;;;;;;;6.22;4.07;;;;;8.20;102542.00;;;;5009024;28;20201;-76
2021/01/15 07:00:20;;;;;;;5.15;3.40;;;;;8.20;102540.00;;;;5011834;28;20193;-77
2021/01/15 07:03:30;;;;;;;6.22;4.15;;;;;8.10;102545.00;;;;5009361;28;20205;-76
2021/01/15 07:06:00;;;;;;;5.40;3.63;;;;;8.20;102553.00;;;;5008818;28;20749;-76
2021/01/15 07:08:30;;;;;;;6.20;3.88;;;;;8.20;102556.00;;;;5008996;28;20231;-76
2021/01/15 07:10:59;;;;;;;5.82;3.70;;;;;8.20;102553.00;;;;5007752;28;20292;-77
2021/01/15 07:13:29;;;;;;;6.13;3.97;;;;;8.20;102555.00;;;;5008920;28;20220;-76
2021/01/15 07:15:55;;;;;;;6.65;3.42;;;;;8.20;102557.00;;;;5009830;28;20288;-77
2021/01/15 07:18:32;;;;;;;5.50;4.03;;;;;8.20;102558.00;;;;5008564;28;20205;-77
2021/01/15 07:21:07;;;;;;;7.07;4.03;;;;;8.20;102566.00;;;;5008842;28;20213;-76
2021/01/15 07:23:53;;;;;;;5.97;3.75;;;;;8.20;102565.00;;;;5009233;28;20243;-76
2021/01/15 07:26:20;;;;;;;5.70;3.88;;;;;8.20;102566.00;;;;5001591;28;20297;-76
2021/01/15 07:28:48;;;;;;;6.10;3.90;;;;;8.30;102564.00;;;;5014856;28;20232;-76
2021/01/15 07:31:23;;;;;;;5.65;3.63;;;;;8.30;102562.00;;;;5012607;28;20200;-77
2021/01/15 07:33:57;;;;;;;5.93;3.80;;;;;8.20;102565.00;;;;5017617;28;20661;-76
2021/01/15 07:36:38;;;;;;;6.53;4.20;;;;;8.20;102568.00;;;;5022321;28;20652;-77
2021/01/15 07:39:10;;;;;;;6.60;4.03;;;;;8.20;102565.00;;;;5007824;28;20205;-77
2021/01/15 07:41:41;;;;;;;5.88;4.13;;;;;8.30;102574.00;;;;5008944;28;20288;-78
2021/01/15 07:44:37;;;;;;;6.63;3.70;;;;;8.20;102589.00;;;;5013087;28;20264;-77
2021/01/15 07:47:04;;;;;;;6.70;3.92;;;;;8.30;102591.00;;;;5006441;28;20201;-78
2021/01/15 07:49:45;;;;;;;6.93;4.30;;;;;8.20;102596.00;;;;5006746;28;20228;-76
2021/01/15 07:52:13;;;;;;;6.47;3.85;;;;;8.30;102597.00;;;;5006197;28;20259;-76
2021/01/15 07:55:00;;;;;;;6.13;3.95;;;;;8.20;102598.00;;;;5006621;28;20271;-76
2021/01/15 07:57:28;;;;;;;6.07;3.85;;;;;8.30;102603.00;;;;5006974;28;20279;-78
2021/01/15 07:59:55;;;;;;;6.22;4.15;;;;;8.30;102605.00;;;;5006941;28;20322;-76
2021/01/15 08:02:22;;;;;;;5.90;4.05;;;;;8.30;102617.00;;;;5007984;28;20208;-76
2021/01/15 08:04:49;;;;;;;7.55;4.25;;;;;8.30;102616.00;;;;5008277;28;20646;-77
2021/01/15 08:07:26;;;;;;;8.35;4.90;;;;;8.30;102621.00;;;;5007510;28;20216;-76
2021/01/15 08:09:53;;;;;;;8.15;4.43;;;;;8.30;102622.00;;;;5007734;28;20292;-76
2021/01/15 08:12:19;;;;;;;6.53;3.90;;;;;8.30;102620.00;;;;5006563;28;20189;-77
2021/01/15 08:14:46;;;;;;;5.95;3.78;;;;;8.30;102627.00;;;;5007603;28;20197;-75
2021/01/15 08:17:14;;;;;;;5.78;4.32;;;;;8.40;102623.00;;;;5003370;28;20256;-76
2021/01/15 08:19:42;;;;;;;8.23;4.63;;;;;8.40;102620.00;;;;4988287;28;20657;-76
2021/01/15 08:22:13;;;;;;;5.70;4.10;;;;;8.40;102626.00;;;;4994031;28;20214;-77
2021/01/15 08:24:47;;;;;;;7.80;4.65;;;;;8.30;102624.00;;;;5007690;28;20772;-77
2021/01/15 08:27:17;;;;;;;6.85;4.10;;;;;8.40;102625.00;;;;5024541;28;20679;-77
2021/01/15 08:29:45;;;;;;;5.22;3.53;;;;;8.40;102628.00;;;;5017438;28;20223;-75
2021/01/15 08:32:12;;;;;;;7.53;4.78;;;;;8.40;102630.00;;;;5021810;28;20507;-77
2021/01/15 08:34:39;;;;;;;6.93;4.07;;;;;8.40;102626.00;;;;5004456;28;20208;-77
2021/01/15 08:37:07;;;;;;;6.40;4.47;;;;;8.50;102635.00;;;;5019705;28;20197;-77
2021/01/15 08:39:46;;;;;;;6.35;4.25;;;;;8.40;102623.00;;;;5019461;28;20209;-77
2021/01/15 08:42:14;;;;;;;7.20;3.60;;;;;8.50;102644.00;;;;5000550;28;20200;-76
2021/01/15 08:44:42;;;;;;;6.63;4.00;;;;;8.50;102646.00;;;;5007477;28;20229;-76
2021/01/15 08:47:11;;;;;;;5.38;3.53;;;;;8.50;102662.00;;;;5017001;28;20209;-76
2021/01/15 08:49:38;;;;;;;6.72;3.60;;;;;8.50;102657.00;;;;5008489;28;20201;-76
2021/01/15 08:52:05;;;;;;;6.38;4.53;;;;;8.40;102666.00;;;;5007949;28;20205;-75
2021/01/15 08:54:33;;;;;;;7.03;4.28;;;;;8.40;102668.00;;;;5007296;28;20292;-77
2021/01/15 08:57:02;;;;;;;5.70;3.85;;;;;8.40;102677.00;;;;5008012;28;20193;-76
2021/01/15 08:59:30;;;;;;;7.22;3.75;;;;;8.50;102675.00;;;;5006788;28;20610;-76
2021/01/15 09:01:58;;;;;;;7.95;4.25;;;;;8.50;102685.00;;;;5008012;28;20582;-75
2021/01/15 09:04:27;;;;;;;6.82;4.05;;;;;8.50;102684.00;;;;5007328;28;20225;-75
2021/01/15 09:06:54;;;;;;;6.70;3.53;;;;;8.40;102688.00;;;;5004935;28;20221;-76
2021/01/15 09:09:23;;;;;;;5.60;3.80;;;;;8.40;102688.00;;;;5007810;28;20201;-76
2021/01/15 09:11:52;;;;;;;6.50;4.38;;;;;8.50;102689.00;;;;5007414;28;20205;-76
2021/01/15 09:14:21;;;;;;;9.38;4.13;;;;;8.50;102697.00;;;;5010812;28;20615;-76
2021/01/15 09:16:49;;;;;;;6.10;4.13;;;;;8.50;102698.00;;;;5011583;28;20689;-76
2021/01/15 09:19:17;;;;;;;6.63;4.05;;;;;8.50;102689.00;;;;5010965;28;20212;-76
2021/01/15 09:21:49;;;;;;;7.40;4.28;;;;;8.50;102713.00;;;;5009717;28;20193;-75
2021/01/15 09:24:16;;;;;;;8.27;4.35;;;;;8.50;102710.00;;;;5024683;28;20224;-76
2021/01/15 09:26:44;;;;;;;6.40;3.47;;;;;8.60;102709.00;;;;4995329;28;20577;-75
2021/01/15 09:29:12;;;;;;;8.10;4.07;;;;;8.60;102708.00;;;;5009116;28;20723;-76
2021/01/15 09:31:40;;;;;;;6.20;4.05;;;;;8.60;102719.00;;;;5009812;28;20204;-76
2021/01/15 09:34:10;;;;;;;6.80;4.18;;;;;8.60;102720.00;;;;5002421;28;20212;-75
2021/01/15 09:36:40;;;;;;;7.53;4.28;;;;;8.60;102717.00;;;;5020611;28;20204;-76
2021/01/15 09:39:07;;;;;;;6.25;4.28;;;;;8.70;102723.00;;;;5024288;28;20351;-76
2021/01/15 09:41:33;;;;;;;6.65;4.38;;;;;8.70;102729.00;;;;5010743;28;20189;-75
2021/01/15 09:44:00;;;;;;;5.75;4.15;;;;;8.70;102737.00;;;;5011263;28;20228;-76
2021/01/15 09:46:29;;;;;;;7.25;4.47;;;;;8.70;102730.00;;;;5024184;28;20679;-76
2021/01/15 09:48:58;;;;;;;10.02;4.47;;;;;8.70;102743.00;;;;5006929;28;20196;-76
2021/01/15 09:51:26;;;;;;;7.38;4.30;;;;;8.70;102741.00;;;;5009729;28;20204;-76
2021/01/15 09:53:53;;;;;;;5.95;4.05;;;;;8.80;102743.00;;;;5010351;28;20197;-76
2021/01/15 09:56:28;;;;;;;6.60;3.90;;;;;8.70;102750.00;;;;5010822;28;20271;-76
2021/01/15 09:58:56;;;;;;;7.50;4.28;;;;;8.80;102746.00;;;;5010346;28;20224;-76
2021/01/15 10:01:23;;;;;;;7.18;4.00;;;;;8.80;102749.00;;;;5010807;28;20204;-76
2021/01/15 10:03:51;;;;;;;6.88;4.53;;;;;8.80;102754.00;;;;5010729;28;20217;-76
2021/01/15 10:06:19;;;;;;;6.15;3.80;;;;;8.80;102752.00;;;;5010520;28;20204;-75
2021/01/15 10:08:47;;;;;;;7.30;4.93;;;;;8.80;102762.00;;;;5011360;28;21106;-75
2021/01/15 10:11:22;;;;;;;7.65;4.10;;;;;8.80;102767.00;;;;5010513;28;20201;-75
2021/01/15 10:13:49;;;;;;;5.32;4.25;;;;;8.90;102770.00;;;;5006655;28;20205;-75
2021/01/15 10:16:16;;;;;;;8.40;4.60;;;;;8.90;102763.00;;;;5015452;28;20209;-75
2021/01/15 10:18:43;;;;;;;6.82;4.35;;;;;8.90;102764.00;;;;5009862;28;20243;-76
2021/01/15 10:21:10;;;;;;;8.05;5.55;;;;;8.80;102773.00;;;;5009857;28;20443;-76
2021/01/15 10:23:38;;;;;;;7.57;4.75;;;;;8.90;102766.00;;;;5009024;28;20228;-76
2021/01/15 10:26:05;;;;;;;6.10;3.95;;;;;8.90;102779.00;;;;5010032;28;20731;-76
2021/01/15 10:28:32;;;;;;;7.30;4.55;;;;;8.90;102769.00;;;;5008321;28;20209;-77
2021/01/15 10:30:59;;;;;;;7.35;4.50;;;;;8.90;102772.00;;;;5008837;28;20207;-76
2021/01/15 10:33:26;;;;;;;5.57;4.10;;;;;8.90;102763.00;;;;5008475;28;20251;-75
2021/01/15 10:35:53;;;;;;;7.35;4.40;;;;;9.00;102768.00;;;;5006461;28;20205;-76
2021/01/15 10:38:20;;;;;;;7.80;3.92;;;;;9.00;102769.00;;;;5010228;28;20193;-76
2021/01/15 10:40:47;;;;;;;8.93;4.97;;;;;9.00;102774.00;;;;5009814;28;20196;-75
2021/01/15 10:43:14;;;;;;;6.70;4.30;;;;;9.00;102776.00;;;;5009242;28;20650;-75
2021/01/15 10:45:41;;;;;;;8.13;4.55;;;;;9.00;102778.00;;;;5009848;28;20200;-75
2021/01/15 10:48:08;;;;;;;5.60;3.92;;;;;9.00;102777.00;;;;5009206;28;20200;-76
2021/01/15 10:50:38;;;;;;;7.25;4.55;;;;;9.00;102769.00;;;;5009127;28;20267;-76
2021/01/15 10:53:04;;;;;;;6.55;4.22;;;;;9.00;102776.00;;;;5009217;28;20201;-76
2021/01/15 10:55:31;;;;;;;6.82;4.35;;;;;9.00;102777.00;;;;5009188;28;20204;-76
2021/01/15 10:57:59;;;;;;;6.85;4.47;;;;;9.00;102779.00;;;;5008890;28;20316;-76
2021/01/15 11:00:25;;;;;;;7.68;4.60;;;;;9.00;102783.00;;;;5002175;28;20675;-75
2021/01/15 11:02:52;;;;;;;6.45;4.20;;;;;9.10;102785.00;;;;5007280;28;20725;-76
2021/01/15 11:05:19;;;;;;;7.53;5.28;;;;;9.10;102781.00;;;;5007526;28;20251;-76
2021/01/15 11:07:46;;;;;;;7.75;4.57;;;;;9.10;102776.00;;;;5008543;28;20221;-76
2021/01/15 11:10:13;;;;;;;7.00;4.53;;;;;9.10;102780.00;;;;5005119;28;20194;-76
2021/01/15 11:12:40;;;;;;;7.63;4.72;;;;;9.10;102770.00;;;;5008592;28;20212;-76
2021/01/15 11:15:09;;;;;;;6.68;4.10;;;;;9.20;102772.00;;;;5008518;28;20571;-76
2021/01/15 11:17:38;;;;;;;7.43;4.90;;;;;9.20;102775.00;;;;5008674;28;20201;-76
2021/01/15 11:20:06;;;;;;;6.63;4.38;;;;;9.20;102771.00;;;;5004466;28;20292;-77
2021/01/15 11:22:34;;;;;;;5.78;3.95;;;;;9.20;102771.00;;;;5005129;28;20252;-76
2021/01/15 11:25:00;;;;;;;6.82;4.13;;;;;9.20;102787.00;;;;5007434;28;20225;-76
2021/01/15 11:27:27;;;;;;;7.95;4.75;;;;;9.20;102777.00;;;;5014166;28;20199;-77
2021/01/15 11:29:55;;;;;;;7.72;5.07;;;;;9.30;102779.00;;;;5017296;28;20204;-76
2021/01/15 11:32:23;;;;;;;7.28;4.32;;;;;9.30;102778.00;;;;5007192;28;20230;-77
2021/01/15 11:34:50;;;;;;;8.13;4.68;;;;;9.30;102778.00;;;;5006214;28;20211;-76
2021/01/15 11:37:17;;;;;;;8.25;5.13;;;;;9.30;102783.00;;;;5008441;28;20197;-76
2021/01/15 11:39:45;;;;;;;7.60;5.13;;;;;9.30;102784.00;;;;5008852;28;20197;-76
2021/01/15 11:42:12;;;;;;;6.97;4.45;;;;;9.30;102784.00;;;;5006920;28;20750;-77
2021/01/15 11:44:39;;;;;;;6.97;4.07;;;;;9.30;102787.00;;;;5010576;28;20717;-76
2021/01/15 11:47:05;;;;;;;6.05;4.47;;;;;9.30;102784.00;;;;5004804;28;20193;-76
2021/01/15 11:49:33;;;;;;;7.35;4.55;;;;;9.30;102785.00;;;;5005651;28;20205;-76
2021/01/15 11:52:00;;;;;;;6.22;4.43;;;;;9.30;102782.00;;;;5007734;28;20216;-76
2021/01/15 11:54:27;;;;;;;6.63;4.63;;;;;9.40;102788.00;;;;5008301;28;20197;-76
2021/01/15 11:56:54;;;;;;;6.13;4.18;;;;;9.30;102777.00;;;;5008979;28;20193;-76
2021/01/15 11:59:20;;;;;;;6.35;4.30;;;;;9.30;102778.00;;;;5007758;28;20220;-75
2021/01/15 12:01:47;;;;;;;6.63;4.32;;;;;9.30;102778.00;;;;5007419;28;20201;-76
2021/01/15 12:04:14;;;;;;;8.02;4.53;;;;;9.30;102779.00;;;;5004808;28;20239;-75
2021/01/15 12:06:41;;;;;;;6.47;4.72;;;;;9.30;102775.00;;;;5008205;28;20625;-75
2021/01/15 12:09:08;;;;;;;6.70;4.20;;;;;9.30;102775.00;;;;5008145;28;20750;-76
2021/01/15 12:11:37;;;;;;;5.57;3.83;;;;;9.30;102778.00;;;;5010191;28;20300;-76
2021/01/15 12:14:04;;;;;;;6.53;4.78;;;;;9.30;102784.00;;;;5008862;28;20283;-75
2021/01/15 12:16:30;;;;;;;6.05;3.88;;;;;9.30;102772.00;;;;5015900;28;20208;-75
2021/01/15 12:18:57;;;;;;;7.15;4.40;;;;;9.30;102778.00;;;;5012089;28;20193;-76
2021/01/15 12:21:24;;;;;;;8.75;5.15;;;;;9.30;102778.00;;;;5008921;28;20204;-75
2021/01/15 12:23:51;;;;;;;6.35;3.78;;;;;9.30;102775.00;;;;5004569;28;20224;-75
2021/01/15 12:26:18;;;;;;;6.55;4.30;;;;;9.30;102777.00;;;;5011680;28;20197;-75
2021/01/15 12:28:45;;;;;;;6.60;4.20;;;;;9.30;102779.00;;;;5008837;28;20201;-75
2021/01/15 12:31:11;;;;;;;6.70;4.07;;;;;9.30;102773.00;;;;5009108;28;20192;-76